createdAt,value
2018-11-04T00:00:00.073Z,17.30
2018-11-04T00:02:28.649Z,18.33
2018-11-04T00:04:57.287Z,18.73
2018-11-04T00:07:26.946Z,17.57
2018-11-04T00:09:55.566Z,17.90
2018-11-04T00:12:24.270Z,17.43
2018-11-04T00:14:52.988Z,18.57
2018-11-04T00:17:21.744Z,17.70
2018-11-04T00:19:50.632Z,16.20
2018-11-04T00:22:19.311Z,18.47
2018-11-04T00:24:48.116Z,18.63
2018-11-04T00:27:17.026Z,16.43
2018-11-04T00:29:45.740Z,18.20
2018-11-04T00:32:14.445Z,18.57
2018-11-04T00:34:43.118Z,16.33
2018-11-04T00:37:11.676Z,18.83
2018-11-04T00:39:41.171Z,18.50
2018-11-04T00:42:10.423Z,18.77
2018-11-04T00:44:39.755Z,18.97
2018-11-04T00:47:08.628Z,19.33
2018-11-04T00:49:37.304Z,19.10
2018-11-04T00:52:06.016Z,18.90
2018-11-04T00:54:34.687Z,19.57
2018-11-04T00:57:03.359Z,18.90
2018-11-04T00:59:31.990Z,19.03
2018-11-04T01:02:00.742Z,19.50
2018-11-04T01:04:29.384Z,18.30
2018-11-04T01:06:57.991Z,19.23
2018-11-04T01:09:26.787Z,19.17
2018-11-04T01:11:56.469Z,18.03
2018-11-04T01:14:25.097Z,18.20
2018-11-04T01:16:53.775Z,17.07
2018-11-04T01:19:22.472Z,16.73
2018-11-04T01:21:51.161Z,19.60
2018-11-04T01:24:19.902Z,18.00
2018-11-04T01:26:48.550Z,18.40
2018-11-04T01:29:17.210Z,17.97
2018-11-04T01:31:45.891Z,17.53
2018-11-04T01:34:14.793Z,18.97
2018-11-04T01:36:43.419Z,18.97
2018-11-04T01:39:12.294Z,17.50
2018-11-04T01:41:40.952Z,18.80
2018-11-04T01:44:11.376Z,17.97
2018-11-04T01:46:41.112Z,17.77
2018-11-04T01:49:09.755Z,17.57
2018-11-04T01:51:38.399Z,17.27
2018-11-04T01:54:07.071Z,17.50
2018-11-04T01:56:35.976Z,16.87
2018-11-04T01:59:05.207Z,16.53
2018-11-04T02:01:34.205Z,19.63
2018-11-04T02:04:02.849Z,17.63
2018-11-04T02:06:31.476Z,17.57
2018-11-04T02:09:00.182Z,18.67
2018-11-04T02:11:28.911Z,17.97
2018-11-04T02:13:58.068Z,18.57
2018-11-04T02:16:26.701Z,19.17
2018-11-04T02:18:55.591Z,18.20
2018-11-04T02:21:24.548Z,18.50
2018-11-04T02:23:53.215Z,18.60
2018-11-04T02:26:28.402Z,18.50
2018-11-04T02:28:57.333Z,18.87
2018-11-04T02:31:26.111Z,18.80
2018-11-04T02:33:55.035Z,17.87
2018-11-04T02:36:24.041Z,19.03
2018-11-04T02:38:52.718Z,18.47
2018-11-04T02:41:21.383Z,20.57
2018-11-04T02:43:50.029Z,18.87
2018-11-04T02:46:18.752Z,19.60
2018-11-04T02:48:47.451Z,20.73
2018-11-04T02:51:16.140Z,18.13
2018-11-04T02:53:44.820Z,19.73
2018-11-04T02:56:13.522Z,20.27
2018-11-04T02:58:42.176Z,18.30
2018-11-04T03:01:10.815Z,19.83
2018-11-04T03:03:39.540Z,21.30
2018-11-04T03:06:08.275Z,19.07
2018-11-04T03:08:36.898Z,20.47
2018-11-04T03:11:05.595Z,19.77
2018-11-04T03:13:34.235Z,18.57
2018-11-04T03:16:03.051Z,19.43
2018-11-04T03:18:31.985Z,19.97
2018-11-04T03:21:01.365Z,19.90
2018-11-04T03:23:30.280Z,20.07
2018-11-04T03:25:58.971Z,20.60
2018-11-04T03:28:27.666Z,18.70
2018-11-04T03:30:56.340Z,19.43
2018-11-04T03:33:25.034Z,19.87
2018-11-04T03:35:53.720Z,18.77
2018-11-04T03:38:22.537Z,20.73
2018-11-04T03:40:52.102Z,20.27
2018-11-04T03:43:21.583Z,20.10
2018-11-04T03:45:50.810Z,20.50
2018-11-04T03:48:20.074Z,19.90
2018-11-04T03:50:48.900Z,21.20
2018-11-04T03:53:17.578Z,22.00
2018-11-04T03:55:46.243Z,21.90
2018-11-04T03:58:14.892Z,23.53
2018-11-04T04:00:43.671Z,22.73
2018-11-04T04:03:12.316Z,24.57
2018-11-04T04:05:40.983Z,22.10
2018-11-04T04:08:09.657Z,21.33
2018-11-04T04:10:38.391Z,23.90
2018-11-04T04:13:07.074Z,24.90
2018-11-04T04:15:35.679Z,24.90
2018-11-04T04:18:04.324Z,26.53
2018-11-04T04:20:33.103Z,24.33
2018-11-04T04:23:02.720Z,28.42
2018-11-04T04:25:32.340Z,26.90
2018-11-04T04:28:00.960Z,28.57
2018-11-04T04:30:29.769Z,29.40
2018-11-04T04:32:58.396Z,30.20
2018-11-04T04:35:27.599Z,31.63
2018-11-04T04:37:56.355Z,30.17
2018-11-04T04:40:25.044Z,29.90
2018-11-04T04:42:53.788Z,30.87
2018-11-04T04:45:22.412Z,28.97
2018-11-04T04:47:51.077Z,30.73
2018-11-04T04:50:19.721Z,28.97
2018-11-04T04:52:48.471Z,28.43
2018-11-04T04:55:17.151Z,30.00
2018-11-04T04:57:45.751Z,29.80
2018-11-04T05:00:14.571Z,28.40
2018-11-04T05:02:43.288Z,28.42
2018-11-04T05:05:11.895Z,29.50
2018-11-04T05:07:40.514Z,30.67
2018-11-04T05:10:09.270Z,29.67
2018-11-04T05:12:37.952Z,30.43
2018-11-04T05:15:07.264Z,30.33
2018-11-04T05:17:36.031Z,31.63
2018-11-04T05:20:05.929Z,32.67
2018-11-04T05:22:34.902Z,32.07
2018-11-04T05:25:03.583Z,32.60
2018-11-04T05:27:32.223Z,30.00
2018-11-04T05:30:00.959Z,31.20
2018-11-04T05:32:29.895Z,31.70
2018-11-04T05:34:58.586Z,32.83
2018-11-04T05:37:27.234Z,33.57
2018-11-04T05:39:55.952Z,33.87
2018-11-04T05:42:24.567Z,33.83
2018-11-04T05:44:53.163Z,34.87
2018-11-04T05:47:22.010Z,33.67
2018-11-04T05:49:50.722Z,33.70
2018-11-04T05:52:19.332Z,34.13
2018-11-04T05:54:47.956Z,35.10
2018-11-04T05:57:16.752Z,33.27
2018-11-04T05:59:45.456Z,33.03
2018-11-04T06:02:14.155Z,32.40
2018-11-04T06:04:42.814Z,34.07
2018-11-04T06:07:11.491Z,34.87
2018-11-04T06:09:40.137Z,34.87
2018-11-04T06:12:08.767Z,32.30
2018-11-04T06:14:37.467Z,31.50
2018-11-04T06:17:06.862Z,31.63
2018-11-04T06:19:35.687Z,31.30
2018-11-04T06:22:04.215Z,31.00
2018-11-04T06:24:32.867Z,32.13
2018-11-04T06:27:01.832Z,31.47
2018-11-04T06:29:30.467Z,32.20
2018-11-04T06:31:59.111Z,32.63
2018-11-04T06:34:27.776Z,30.03
2018-11-04T06:36:56.684Z,33.17
2018-11-04T06:39:25.363Z,33.07
2018-11-04T06:41:53.979Z,31.73
2018-11-04T06:44:22.603Z,31.80
2018-11-04T06:46:51.428Z,31.53
2018-11-04T06:49:20.023Z,29.97
2018-11-04T06:51:48.762Z,31.70
2018-11-04T06:54:17.486Z,31.20
2018-11-04T06:56:46.135Z,29.70
2018-11-04T06:59:14.830Z,31.80
2018-11-04T07:01:43.479Z,31.23
2018-11-04T07:04:21.407Z,30.67
2018-11-04T07:06:50.118Z,31.55
2018-11-04T07:09:19.149Z,30.47
2018-11-04T07:11:48.589Z,30.63
2018-11-04T07:14:17.911Z,28.53
2018-11-04T07:16:46.996Z,28.13
2018-11-04T07:19:16.119Z,28.45
2018-11-04T07:21:44.767Z,27.50
2018-11-04T07:24:13.771Z,26.50
2018-11-04T07:26:42.638Z,27.13
2018-11-04T07:29:11.388Z,28.07
2018-11-04T07:31:41.239Z,28.10
2018-11-04T07:34:10.862Z,27.52
2018-11-04T07:36:39.552Z,27.53
2018-11-04T07:39:10.855Z,26.63
2018-11-04T07:41:39.683Z,25.70
2018-11-04T07:44:08.645Z,26.57
2018-11-04T07:46:37.346Z,27.03
2018-11-04T07:49:06.072Z,26.73
2018-11-04T07:51:35.069Z,25.50
2018-11-04T07:54:03.708Z,24.77
2018-11-04T07:56:32.352Z,24.67
2018-11-04T07:59:01.023Z,24.77
2018-11-04T08:01:29.794Z,24.60
2018-11-04T08:03:58.510Z,23.67
2018-11-04T08:06:27.208Z,23.73
2018-11-04T08:08:55.906Z,25.25
2018-11-04T08:11:24.691Z,25.80
2018-11-04T08:13:53.332Z,24.97
2018-11-04T08:16:21.973Z,23.27
2018-11-04T08:18:50.919Z,23.60
2018-11-04T08:21:19.618Z,23.47
2018-11-04T08:23:48.273Z,25.77
2018-11-04T08:26:16.975Z,23.93
2018-11-04T08:28:45.960Z,23.70
2018-11-04T08:31:15.831Z,25.57
2018-11-04T08:33:44.618Z,24.87
2018-11-04T08:36:13.556Z,23.83
2018-11-04T08:38:42.212Z,25.67
2018-11-04T08:41:11.151Z,25.47
2018-11-04T08:43:39.816Z,24.47
2018-11-04T08:46:08.444Z,27.43
2018-11-04T08:48:37.084Z,27.43
2018-11-04T08:51:05.962Z,25.77
2018-11-04T08:53:35.131Z,27.63
2018-11-04T08:56:03.916Z,25.53
2018-11-04T08:58:32.537Z,28.07
2018-11-04T09:01:01.176Z,28.10
2018-11-04T09:03:29.812Z,27.30
2018-11-04T09:05:58.458Z,28.73
2018-11-04T09:08:27.111Z,26.83
2018-11-04T09:10:55.760Z,27.40
2018-11-04T09:13:24.438Z,28.70
2018-11-04T09:15:53.128Z,26.50
2018-11-04T09:18:21.743Z,29.63
2018-11-04T09:20:50.366Z,28.47
2018-11-04T09:23:22.418Z,29.13
2018-11-04T09:25:50.995Z,28.37
2018-11-04T09:28:19.903Z,26.17
2018-11-04T09:30:48.532Z,26.87
2018-11-04T09:33:17.168Z,28.10
2018-11-04T09:35:46.960Z,27.58
2018-11-04T09:38:15.640Z,25.63
2018-11-04T09:40:44.608Z,26.87
2018-11-04T09:43:13.219Z,26.10
2018-11-04T09:45:41.890Z,26.73
2018-11-04T09:48:10.510Z,26.30
2018-11-04T09:50:39.150Z,26.73
2018-11-04T09:53:07.787Z,23.53
2018-11-04T09:55:36.448Z,25.30
2018-11-04T09:58:05.115Z,23.63
2018-11-04T10:00:34.099Z,25.40
2018-11-04T10:03:02.770Z,23.73
2018-11-04T10:05:31.459Z,24.63
2018-11-04T10:08:00.151Z,24.40
2018-11-04T10:10:29.133Z,24.37
2018-11-04T10:12:57.783Z,23.87
2018-11-04T10:15:26.418Z,24.90
2018-11-04T10:17:55.052Z,24.80
2018-11-04T10:20:23.857Z,24.90
2018-11-04T10:22:52.569Z,24.90
2018-11-04T10:25:21.195Z,24.70
2018-11-04T10:27:49.831Z,25.10
2018-11-04T10:30:18.552Z,25.63
2018-11-04T10:32:47.129Z,25.40
2018-11-04T10:35:15.949Z,25.47
2018-11-04T10:37:44.620Z,27.17
2018-11-04T10:40:13.850Z,26.67
2018-11-04T10:42:42.654Z,27.07
2018-11-04T10:45:11.786Z,27.80
2018-11-04T10:47:40.422Z,29.77
2018-11-04T10:50:10.339Z,27.37
2018-11-04T10:52:39.057Z,29.40
2018-11-04T10:55:08.572Z,29.83
2018-11-04T10:57:37.339Z,28.63
2018-11-04T11:00:13.307Z,27.77
2018-11-04T11:02:41.960Z,29.20
2018-11-04T11:05:10.649Z,28.33
2018-11-04T11:07:39.535Z,29.90
2018-11-04T11:10:09.276Z,28.20
2018-11-04T11:12:38.248Z,26.57
2018-11-04T11:15:07.396Z,27.83
2018-11-04T11:17:36.204Z,25.57
2018-11-04T11:20:06.390Z,25.55
2018-11-04T11:22:35.127Z,24.93
2018-11-04T11:25:03.814Z,25.13
2018-11-04T11:27:32.460Z,25.43
2018-11-04T11:30:01.223Z,25.03
2018-11-04T11:32:29.994Z,25.17
2018-11-04T11:34:58.862Z,24.82
2018-11-04T11:37:27.596Z,25.80
2018-11-04T11:39:56.135Z,24.93
2018-11-04T11:42:24.973Z,24.63
2018-11-04T11:44:53.665Z,24.43
2018-11-04T11:47:22.269Z,25.27
2018-11-04T11:49:51.394Z,25.57
2018-11-04T11:52:20.293Z,24.77
2018-11-04T11:54:48.956Z,25.77
2018-11-04T11:57:17.652Z,25.63
2018-11-04T11:59:46.400Z,26.33
2018-11-04T12:02:15.462Z,25.20
2018-11-04T12:04:44.490Z,25.03
2018-11-04T12:07:13.187Z,24.17
2018-11-04T12:09:41.968Z,24.83
2018-11-04T12:12:10.689Z,25.80
2018-11-04T12:14:39.536Z,24.27
2018-11-04T12:17:08.166Z,24.43
2018-11-04T12:19:37.071Z,25.07
2018-11-04T12:22:05.752Z,24.02
2018-11-04T12:24:34.432Z,24.90
2018-11-04T12:27:03.076Z,25.77
2018-11-04T12:29:31.785Z,24.70
2018-11-04T12:32:00.472Z,25.43
2018-11-04T12:34:29.295Z,24.27
2018-11-04T12:36:58.179Z,25.23
2018-11-04T12:39:27.195Z,26.97
2018-11-04T12:41:56.109Z,27.47
2018-11-04T12:44:24.868Z,25.03
2018-11-04T12:46:54.130Z,25.23
2018-11-04T12:49:22.801Z,25.97
2018-11-04T12:51:51.503Z,27.57
2018-11-04T12:54:20.186Z,27.33
2018-11-04T12:56:48.923Z,27.00
2018-11-04T12:59:18.024Z,27.67
2018-11-04T13:01:46.907Z,28.00
2018-11-04T13:04:15.888Z,27.37
2018-11-04T13:06:44.819Z,28.77
2018-11-04T13:09:13.526Z,28.50
2018-11-04T13:11:42.317Z,27.77
2018-11-04T13:14:10.883Z,27.27
2018-11-04T13:16:39.584Z,27.27
2018-11-04T13:19:08.288Z,28.93
2018-11-04T13:21:36.910Z,26.27
2018-11-04T13:24:06.531Z,27.20
2018-11-04T13:26:35.248Z,28.43
2018-11-04T13:29:03.953Z,28.30
2018-11-04T13:31:32.952Z,29.15
2018-11-04T13:34:01.945Z,28.47
2018-11-04T13:36:30.591Z,27.70
2018-11-04T13:38:59.300Z,27.03
2018-11-04T13:41:27.976Z,27.07
2018-11-04T13:43:56.678Z,27.63
2018-11-04T13:46:26.038Z,27.82
2018-11-04T13:48:55.097Z,25.40
2018-11-04T13:51:24.445Z,25.17
2018-11-04T13:53:53.221Z,25.40
2018-11-04T13:56:22.400Z,25.70
2018-11-04T13:58:52.068Z,25.00
2018-11-04T14:01:21.084Z,23.90
2018-11-04T14:03:49.857Z,25.80
2018-11-04T14:06:18.847Z,24.77
2018-11-04T14:08:47.816Z,23.67
2018-11-04T14:11:16.474Z,24.57
2018-11-04T14:13:45.171Z,24.27
2018-11-04T14:16:13.883Z,25.35
2018-11-04T14:18:42.634Z,25.13
2018-11-04T14:21:11.577Z,22.60
2018-11-04T14:23:40.326Z,22.53
2018-11-04T14:26:09.352Z,22.60
2018-11-04T14:28:37.987Z,22.57
2018-11-04T14:31:06.660Z,22.10
2018-11-04T14:33:35.690Z,22.07
2018-11-04T14:36:04.714Z,22.97
2018-11-04T14:38:33.505Z,22.37
2018-11-04T14:41:02.180Z,19.57
2018-11-04T14:43:30.989Z,22.47
2018-11-04T14:46:00.060Z,20.77
2018-11-04T14:48:28.712Z,20.00
2018-11-04T14:50:58.116Z,21.27
2018-11-04T14:53:26.783Z,20.27
2018-11-04T14:55:56.381Z,19.73
2018-11-04T14:58:25.196Z,20.03
2018-11-04T15:00:53.920Z,18.93
2018-11-04T15:03:22.598Z,20.13
2018-11-04T15:05:51.282Z,20.20
2018-11-04T15:08:20.297Z,19.60
2018-11-04T15:10:49.320Z,18.53
2018-11-04T15:13:18.282Z,18.50
2018-11-04T15:15:47.256Z,19.03
2018-11-04T15:18:15.908Z,17.17
2018-11-04T15:20:44.615Z,17.70
2018-11-04T15:23:13.320Z,18.50
2018-11-04T15:25:42.032Z,15.40
2018-11-04T15:28:10.964Z,17.43
2018-11-04T15:30:40.657Z,17.67
2018-11-04T15:33:09.599Z,15.03
2018-11-04T15:35:38.311Z,15.47
2018-11-04T15:38:06.948Z,16.07
2018-11-04T15:40:35.745Z,13.60
2018-11-04T15:43:04.975Z,15.33
2018-11-04T15:45:34.531Z,15.60
2018-11-04T15:48:03.187Z,14.27
2018-11-04T15:50:32.235Z,13.73
2018-11-04T15:53:00.900Z,15.30
2018-11-04T15:55:29.575Z,15.63
2018-11-04T15:57:58.384Z,15.60
2018-11-04T16:00:27.284Z,16.23
2018-11-04T16:02:56.000Z,16.97
2018-11-04T16:05:24.694Z,17.70
2018-11-04T16:07:53.303Z,16.67
2018-11-04T16:10:21.980Z,16.80
2018-11-04T16:12:50.968Z,17.73
2018-11-04T16:15:19.649Z,16.33
2018-11-04T16:17:48.281Z,16.33
2018-11-04T16:20:17.072Z,16.77
2018-11-04T16:23:00.555Z,17.23
2018-11-04T16:25:29.264Z,18.20
2018-11-04T16:27:58.152Z,19.30
2018-11-04T16:30:27.003Z,18.97
2018-11-04T16:32:55.881Z,20.30
2018-11-04T16:35:24.847Z,20.00
2018-11-04T16:37:53.599Z,21.10
2018-11-04T16:40:22.222Z,22.70
2018-11-04T16:42:50.877Z,20.97
2018-11-04T16:45:19.792Z,22.07
2018-11-04T16:47:48.696Z,22.62
2018-11-04T16:50:18.547Z,24.23
2018-11-04T16:52:47.528Z,21.93
2018-11-04T16:55:16.188Z,22.50
2018-11-04T16:57:44.854Z,22.00
2018-11-04T17:00:13.553Z,21.90
2018-11-04T17:02:42.200Z,20.77
2018-11-04T17:05:11.902Z,20.77
2018-11-04T17:07:40.847Z,19.87
2018-11-04T17:10:11.095Z,20.43
2018-11-04T17:12:40.035Z,19.63
2018-11-04T17:15:11.070Z,19.43
2018-11-04T17:17:40.129Z,19.07
2018-11-04T17:20:15.225Z,19.33
2018-11-04T17:22:44.362Z,19.07
2018-11-04T17:25:13.503Z,20.37
2018-11-04T17:27:42.392Z,18.23
2018-11-04T17:30:13.963Z,20.17
2018-11-04T17:32:42.980Z,20.93
2018-11-04T17:35:13.081Z,21.27
2018-11-04T17:37:43.140Z,22.43
2018-11-04T17:40:12.759Z,22.13
2018-11-04T17:42:41.480Z,24.83
2018-11-04T17:45:11.632Z,26.00
2018-11-04T17:47:40.356Z,25.77
2018-11-04T17:50:13.442Z,24.80
2018-11-04T17:52:42.812Z,26.53
2018-11-04T17:55:12.042Z,26.50
2018-11-04T17:57:40.996Z,24.90
2018-11-04T18:00:10.643Z,25.30
2018-11-04T18:02:40.292Z,25.90
2018-11-04T18:05:09.706Z,26.77
2018-11-04T18:07:38.587Z,27.20
2018-11-04T18:10:07.668Z,27.40
2018-11-04T18:12:36.685Z,26.50
2018-11-04T18:15:06.325Z,27.93
2018-11-04T18:17:35.127Z,28.03
2018-11-04T18:20:04.193Z,28.17
2018-11-04T18:22:33.988Z,24.97
2018-11-04T18:25:02.619Z,27.57
2018-11-04T18:27:31.260Z,27.43
2018-11-04T18:29:59.960Z,28.87
2018-11-04T18:32:28.597Z,28.87
2018-11-04T18:34:57.236Z,29.27
2018-11-04T18:37:27.644Z,29.63
2018-11-04T18:39:56.515Z,29.27
2018-11-04T18:42:25.182Z,30.53
2018-11-04T18:44:53.902Z,29.03
2018-11-04T18:47:22.493Z,29.20
2018-11-04T18:49:51.178Z,32.73
2018-11-04T18:52:20.087Z,30.73
2018-11-04T18:54:48.682Z,28.40
2018-11-04T18:57:17.445Z,31.47
2018-11-04T18:59:46.090Z,30.33
2018-11-04T19:02:14.751Z,32.17
2018-11-04T19:04:43.416Z,30.60
2018-11-04T19:07:12.121Z,30.33
2018-11-04T19:09:40.780Z,31.07
2018-11-04T19:12:09.520Z,32.03
2018-11-04T19:14:38.232Z,33.07
2018-11-04T19:17:06.899Z,34.83
2018-11-04T19:19:35.633Z,34.00
2018-11-04T19:22:04.379Z,35.20
2018-11-04T19:24:33.018Z,33.63
2018-11-04T19:27:01.716Z,36.23
2018-11-04T19:29:30.602Z,36.23
2018-11-04T19:31:59.328Z,35.47
2018-11-04T19:34:28.309Z,34.37
2018-11-04T19:36:56.951Z,32.47
2018-11-04T19:39:25.850Z,34.73
2018-11-04T19:41:54.515Z,34.83
2018-11-04T19:44:23.316Z,36.63
2018-11-04T19:46:52.093Z,34.23
2018-11-04T19:49:21.010Z,35.15
2018-11-04T19:51:49.687Z,33.23
2018-11-04T19:54:18.396Z,36.57
2018-11-04T19:56:47.109Z,35.17
2018-11-04T19:59:15.796Z,33.37
2018-11-04T20:01:44.418Z,34.47
2018-11-04T20:04:13.172Z,34.07
2018-11-04T20:06:41.911Z,35.50
2018-11-04T20:09:13.564Z,34.97
2018-11-04T20:11:42.607Z,36.17
2018-11-04T20:14:17.832Z,36.17
2018-11-04T20:16:47.580Z,36.90
2018-11-04T20:19:21.858Z,35.77
2018-11-04T20:21:50.996Z,35.47
2018-11-04T20:24:25.115Z,34.57
2018-11-04T20:26:53.766Z,34.10
2018-11-04T20:29:23.013Z,35.43
2018-11-04T20:31:57.108Z,36.77
2018-11-04T20:34:25.767Z,36.17
2018-11-04T20:36:54.419Z,36.40
2018-11-04T20:39:28.588Z,34.30
2018-11-04T20:41:57.247Z,33.95
2018-11-04T20:44:30.412Z,32.77
2018-11-04T20:46:59.052Z,33.67
2018-11-04T20:49:33.383Z,34.67
2018-11-04T20:52:02.211Z,33.23
2018-11-04T20:54:31.056Z,33.37
2018-11-04T20:57:05.181Z,33.27
2018-11-04T20:59:33.985Z,31.57
2018-11-04T21:02:02.752Z,30.57
2018-11-04T21:04:31.313Z,31.10
2018-11-04T21:07:00.031Z,30.00
2018-11-04T21:09:28.709Z,29.03
2018-11-04T21:11:57.371Z,26.93
2018-11-04T21:14:26.093Z,27.93
2018-11-04T21:16:54.723Z,25.17
2018-11-04T21:19:24.267Z,26.50
2018-11-04T21:21:52.939Z,23.53
2018-11-04T21:24:21.864Z,24.53
2018-11-04T21:26:50.525Z,25.30
2018-11-04T21:29:19.617Z,25.13
2018-11-04T21:31:48.103Z,21.87
2018-11-04T21:34:16.899Z,22.43
2018-11-04T21:36:45.580Z,22.77
2018-11-04T21:39:14.232Z,22.57
2018-11-04T21:41:42.910Z,19.53
2018-11-04T21:44:11.949Z,22.83
2018-11-04T21:46:40.519Z,21.97
2018-11-04T21:49:09.187Z,22.40
2018-11-04T21:51:37.830Z,22.73
2018-11-04T21:54:06.463Z,22.60
2018-11-04T21:56:35.264Z,23.67
2018-11-04T21:59:03.991Z,24.13
2018-11-04T22:01:32.639Z,22.77
2018-11-04T22:04:01.540Z,24.07
2018-11-04T22:06:30.016Z,26.43
2018-11-04T22:08:58.696Z,26.40
2018-11-04T22:11:27.374Z,26.40
2018-11-04T22:13:56.150Z,27.83
2018-11-04T22:16:55.253Z,27.73
2018-11-04T22:19:24.901Z,27.23
2018-11-04T22:21:54.749Z,28.63
2018-11-04T22:24:23.781Z,30.93
2018-11-04T22:26:52.422Z,30.17
2018-11-04T22:29:21.108Z,31.23
2018-11-04T22:31:50.060Z,32.03
2018-11-04T22:34:18.721Z,34.13
2018-11-04T22:36:47.393Z,32.53
2018-11-04T22:39:16.101Z,33.67
2018-11-04T22:41:44.779Z,31.77
2018-11-04T22:44:13.456Z,35.20
2018-11-04T22:46:42.264Z,35.13
2018-11-04T22:49:10.957Z,35.13
2018-11-04T22:51:39.857Z,36.80
2018-11-04T22:54:08.547Z,37.50
2018-11-04T22:56:37.303Z,37.10
2018-11-04T22:59:06.353Z,38.60
2018-11-04T23:01:35.116Z,38.37
2018-11-04T23:04:03.777Z,38.83
2018-11-04T23:06:32.347Z,40.67
2018-11-04T23:09:00.989Z,39.60
2018-11-04T23:11:29.647Z,42.33
2018-11-04T23:13:58.291Z,40.63
2018-11-04T23:16:26.910Z,39.20
2018-11-04T23:18:55.585Z,39.47
2018-11-04T23:21:24.374Z,41.53
2018-11-04T23:23:53.072Z,41.93
2018-11-04T23:26:21.743Z,41.97
2018-11-04T23:28:50.379Z,41.60
2018-11-04T23:31:19.028Z,41.47
2018-11-04T23:33:47.665Z,44.63
2018-11-04T23:36:16.292Z,42.17
2018-11-04T23:38:44.947Z,41.53
2018-11-04T23:41:20.175Z,43.43
2018-11-04T23:43:48.906Z,42.77
2018-11-04T23:46:17.892Z,41.83
2018-11-04T23:48:46.676Z,42.23
2018-11-04T23:51:15.364Z,44.50
2018-11-04T23:53:44.031Z,41.63
2018-11-04T23:56:12.663Z,40.93
2018-11-04T23:58:41.455Z,42.47
